createdAt,value
2023-03-21T00:02:45.668Z,10.85
2023-03-21T00:05:52.103Z,10.82
2023-03-21T00:08:54.724Z,10.74
2023-03-21T00:11:57.565Z,10.64
2023-03-21T00:15:04.710Z,10.58
2023-03-21T00:18:11.544Z,10.43
2023-03-21T00:24:41.912Z,10.16
2023-03-21T00:27:57.210Z,10.02
2023-03-21T00:31:07.815Z,9.74
2023-03-21T00:37:16.859Z,9.60
2023-03-21T00:40:28.090Z,9.47
2023-03-21T00:43:35.904Z,9.42
2023-03-21T00:47:00.566Z,9.43
2023-03-21T00:50:01.562Z,9.36
2023-03-21T00:53:04.604Z,9.25
2023-03-21T00:56:07.861Z,9.21
2023-03-21T00:59:14.732Z,9.11
2023-03-21T01:02:22.916Z,9.00
2023-03-21T01:05:46.335Z,9.07
2023-03-21T01:08:53.531Z,9.13
2023-03-21T01:11:56.290Z,9.15
2023-03-21T01:15:00.898Z,9.15
2023-03-21T01:18:03.887Z,9.16
2023-03-21T01:21:09.752Z,9.08
2023-03-21T01:24:12.396Z,9.07
2023-03-21T01:27:16.044Z,9.06
2023-03-21T01:30:22.727Z,9.04
2023-03-21T01:33:27.228Z,8.99
2023-03-21T01:36:30.131Z,8.91
2023-03-21T01:39:34.987Z,8.91
2023-03-21T01:42:38.011Z,8.99
2023-03-21T01:46:21.999Z,9.08
2023-03-21T01:49:36.110Z,9.15
2023-03-21T01:52:42.015Z,9.18
2023-03-21T01:55:45.420Z,9.25
2023-03-21T01:58:49.436Z,9.24
2023-03-21T02:01:57.159Z,9.24
2023-03-21T02:05:04.080Z,9.20
2023-03-21T02:08:07.081Z,9.20
2023-03-21T02:11:10.668Z,9.15
2023-03-21T02:14:28.355Z,9.11
2023-03-21T02:17:57.905Z,8.99
2023-03-21T02:21:53.154Z,8.97
2023-03-21T02:25:04.207Z,8.95
2023-03-21T02:28:29.158Z,8.88
2023-03-21T02:31:37.608Z,8.82
2023-03-21T02:34:51.542Z,8.89
2023-03-21T02:38:00.882Z,8.95
2023-03-21T02:41:18.213Z,8.99
2023-03-21T02:44:43.745Z,8.94
2023-03-21T02:47:53.582Z,8.94
2023-03-21T02:50:58.308Z,8.92
2023-03-21T02:54:27.914Z,8.84
2023-03-21T02:57:40.098Z,8.76
2023-03-21T03:00:46.189Z,8.66
2023-03-21T03:03:48.961Z,8.59
2023-03-21T03:07:12.955Z,8.61
2023-03-21T03:10:32.825Z,8.59
2023-03-21T03:18:14.705Z,8.65
2023-03-21T03:21:23.286Z,8.58
2023-03-21T03:24:37.235Z,8.54
2023-03-21T03:27:43.146Z,8.50
2023-03-21T03:31:01.131Z,8.42
2023-03-21T03:34:14.529Z,8.29
2023-03-21T03:37:21.939Z,8.27
2023-03-21T03:40:38.516Z,8.17
2023-03-21T03:43:49.169Z,7.99
2023-03-21T03:46:59.097Z,7.87
2023-03-21T03:50:27.251Z,7.80
2023-03-21T03:53:38.107Z,7.79
2023-03-21T03:56:40.948Z,7.60
2023-03-21T03:59:45.856Z,7.57
2023-03-21T04:02:49.431Z,7.41
2023-03-21T04:05:54.188Z,7.36
2023-03-21T04:09:00.129Z,7.31
2023-03-21T04:12:05.561Z,7.28
2023-03-21T04:15:11.117Z,7.28
2023-03-21T04:18:14.753Z,7.22
2023-03-21T04:21:18.419Z,7.18
2023-03-21T04:24:22.317Z,7.16
2023-03-21T04:27:25.059Z,7.21
2023-03-21T04:30:34.372Z,6.97
2023-03-21T04:33:38.593Z,6.86
2023-03-21T04:36:49.552Z,6.59
2023-03-21T04:39:52.569Z,6.42
2023-03-21T04:42:55.575Z,6.46
2023-03-21T04:45:58.268Z,6.64
2023-03-21T04:49:01.722Z,6.91
2023-03-21T04:52:04.347Z,6.99
2023-03-21T04:55:10.424Z,7.22
2023-03-21T04:58:14.522Z,7.40
2023-03-21T05:01:20.803Z,7.53
2023-03-21T05:04:23.698Z,7.67
2023-03-21T05:07:26.550Z,7.89
2023-03-21T05:10:29.341Z,8.02
2023-03-21T05:13:32.315Z,8.14
2023-03-21T05:16:36.567Z,8.13
2023-03-21T05:19:40.643Z,8.24
2023-03-21T05:22:46.254Z,8.29
2023-03-21T05:25:50.985Z,8.40
2023-03-21T05:28:54.546Z,8.49
2023-03-21T05:31:58.839Z,8.68
2023-03-21T05:35:01.904Z,8.83
2023-03-21T05:38:04.856Z,8.92
2023-03-21T05:41:07.726Z,9.04
2023-03-21T05:44:10.811Z,9.10
2023-03-21T05:47:15.023Z,9.17
2023-03-21T05:50:18.199Z,9.41
2023-03-21T05:53:23.256Z,9.76
2023-03-21T05:56:26.356Z,10.14
2023-03-21T05:59:30.360Z,10.25
2023-03-21T06:02:33.985Z,10.26
2023-03-21T06:05:38.392Z,10.30
2023-03-21T06:08:42.709Z,10.15
2023-03-21T06:11:49.157Z,10.12
2023-03-21T06:14:52.596Z,10.12
2023-03-21T06:17:56.236Z,10.17
2023-03-21T06:20:59.241Z,10.23
2023-03-21T06:24:02.502Z,10.34
2023-03-21T06:27:05.493Z,10.58
2023-03-21T06:30:10.026Z,10.88
2023-03-21T06:33:13.543Z,11.20
2023-03-21T06:36:16.529Z,11.51
2023-03-21T06:39:19.226Z,11.60
2023-03-21T06:42:23.280Z,12.11
2023-03-21T06:45:27.654Z,12.53
2023-03-21T06:48:30.982Z,12.79
2023-03-21T06:51:34.180Z,13.05
2023-03-21T06:54:38.694Z,13.36
2023-03-21T06:57:44.112Z,13.62
2023-03-21T07:00:48.499Z,14.08
2023-03-21T07:03:53.745Z,14.72
2023-03-21T07:06:57.964Z,14.83
2023-03-21T07:10:02.206Z,15.28
2023-03-21T07:13:07.164Z,16.02
2023-03-21T07:16:10.524Z,16.76
2023-03-21T07:19:14.173Z,17.04
2023-03-21T07:22:18.675Z,17.43
2023-03-21T07:25:21.733Z,17.56
2023-03-21T07:28:25.070Z,17.34
2023-03-21T07:31:28.113Z,16.81
2023-03-21T07:34:33.302Z,16.92
2023-03-21T07:37:39.685Z,17.11
2023-03-21T07:40:42.883Z,17.41
2023-03-21T07:43:46.002Z,17.36
2023-03-21T07:46:49.095Z,17.01
2023-03-21T07:49:51.999Z,17.32
2023-03-21T07:52:54.697Z,17.13
2023-03-21T07:55:58.135Z,17.16
2023-03-21T07:59:00.880Z,17.67
2023-03-21T08:02:04.965Z,17.49
2023-03-21T08:05:11.606Z,17.17
2023-03-21T08:08:14.242Z,17.47
2023-03-21T08:11:18.168Z,17.63
2023-03-21T08:14:21.260Z,17.93
2023-03-21T08:17:24.225Z,17.78
2023-03-21T08:20:27.573Z,18.46
2023-03-21T08:23:30.756Z,18.41
2023-03-21T08:26:34.162Z,18.65
2023-03-21T08:29:40.648Z,18.95
2023-03-21T08:32:43.759Z,18.96
2023-03-21T08:35:47.143Z,19.24
2023-03-21T08:38:54.261Z,19.72
2023-03-21T08:41:57.303Z,19.30
2023-03-21T08:45:00.283Z,20.64
2023-03-21T08:48:03.919Z,20.54
2023-03-21T08:51:06.812Z,20.50
2023-03-21T08:54:18.553Z,20.69
2023-03-21T08:57:21.468Z,20.86
2023-03-21T09:00:25.002Z,20.92
2023-03-21T09:03:27.714Z,20.69
2023-03-21T09:06:30.851Z,20.29
2023-03-21T09:09:33.641Z,19.92
2023-03-21T09:12:36.597Z,19.72
2023-03-21T09:15:40.501Z,20.09
2023-03-21T09:18:55.928Z,20.28
2023-03-21T09:21:59.875Z,20.14
2023-03-21T09:25:03.153Z,21.24
2023-03-21T09:28:06.281Z,21.21
2023-03-21T09:31:11.954Z,22.22
2023-03-21T09:34:15.801Z,21.72
2023-03-21T09:37:18.856Z,22.19
2023-03-21T09:40:24.197Z,22.41
2023-03-21T09:43:39.790Z,20.78
2023-03-21T09:47:06.976Z,21.18
2023-03-21T09:50:20.451Z,22.21
2023-03-21T09:53:27.207Z,20.65
2023-03-21T09:56:31.323Z,17.97
2023-03-21T09:59:41.282Z,18.29
2023-03-21T10:02:48.068Z,20.55
2023-03-21T10:05:53.062Z,19.42
2023-03-21T10:09:15.852Z,20.53
2023-03-21T10:12:22.895Z,21.29
2023-03-21T10:15:27.244Z,20.59
2023-03-21T10:18:31.606Z,20.20
2023-03-21T10:24:57.507Z,17.65
2023-03-21T10:28:01.263Z,17.57
2023-03-21T10:31:07.456Z,17.65
2023-03-21T10:34:32.798Z,17.75
2023-03-21T10:37:36.506Z,18.41
2023-03-21T10:40:39.177Z,19.61
2023-03-21T10:43:45.070Z,19.59
2023-03-21T10:46:56.438Z,19.58
2023-03-21T10:50:09.908Z,21.19
2023-03-21T10:53:22.357Z,22.43
2023-03-21T10:56:31.227Z,22.34
2023-03-21T10:59:43.112Z,23.45
2023-03-21T11:02:49.739Z,22.40
2023-03-21T11:05:57.422Z,23.10
2023-03-21T11:09:15.940Z,22.84
2023-03-21T11:12:29.708Z,23.69
2023-03-21T11:15:52.802Z,20.74
2023-03-21T11:19:01.572Z,18.80
2023-03-21T11:22:07.158Z,17.94
2023-03-21T11:25:35.485Z,20.05
2023-03-21T11:28:42.213Z,21.18
2023-03-21T11:31:45.569Z,21.03
2023-03-21T11:34:58.242Z,21.63
2023-03-21T11:38:00.922Z,22.05
2023-03-21T11:41:04.793Z,21.27
2023-03-21T11:44:25.245Z,19.87
2023-03-21T11:47:28.452Z,20.16
2023-03-21T11:50:42.631Z,19.52
2023-03-21T11:53:51.337Z,19.59
2023-03-21T11:57:01.539Z,19.55
2023-03-21T12:00:17.785Z,18.30
2023-03-21T12:03:41.454Z,17.87
2023-03-21T12:06:55.397Z,18.30
2023-03-21T12:10:19.639Z,18.12
2023-03-21T12:13:22.770Z,17.86
2023-03-21T12:16:25.778Z,18.00
2023-03-21T12:19:39.620Z,17.60
2023-03-21T12:23:01.905Z,17.30
2023-03-21T12:26:24.416Z,17.28
2023-03-21T12:29:33.441Z,17.03
2023-03-21T12:32:46.218Z,16.63
2023-03-21T12:35:57.298Z,16.65
2023-03-21T12:39:15.500Z,16.54
2023-03-21T12:42:30.495Z,16.49
2023-03-21T12:45:47.291Z,16.40
2023-03-21T12:48:53.937Z,16.49
2023-03-21T12:52:01.797Z,16.56
2023-03-21T12:55:16.602Z,16.54
2023-03-21T12:58:24.471Z,16.82
2023-03-21T13:01:28.915Z,16.62
2023-03-21T13:04:37.195Z,16.52
2023-03-21T13:07:42.675Z,16.49
2023-03-21T13:10:46.429Z,16.55
2023-03-21T13:14:07.848Z,16.69
2023-03-21T13:17:25.115Z,16.87
2023-03-21T13:20:47.928Z,16.81
2023-03-21T13:24:23.382Z,16.79
2023-03-21T13:27:28.858Z,16.94
2023-03-21T13:30:32.640Z,16.63
2023-03-21T13:33:35.736Z,16.78
2023-03-21T13:36:46.196Z,16.93
2023-03-21T13:39:49.700Z,16.67
2023-03-21T13:42:55.435Z,16.67
2023-03-21T13:46:06.396Z,16.81
2023-03-21T13:49:09.321Z,16.78
2023-03-21T13:52:12.406Z,16.79
2023-03-21T13:55:16.976Z,16.90
2023-03-21T13:58:33.746Z,16.86
2023-03-21T14:01:58.292Z,16.93
2023-03-21T14:05:07.807Z,16.93
2023-03-21T14:08:24.818Z,17.19
2023-03-21T14:11:33.025Z,17.03
2023-03-21T14:14:42.078Z,16.90
2023-03-21T14:18:15.871Z,16.95
2023-03-21T14:21:32.733Z,16.95
2023-03-21T14:24:36.106Z,16.75
2023-03-21T14:27:42.752Z,16.68
2023-03-21T14:30:51.015Z,16.61
2023-03-21T14:33:57.244Z,16.59
2023-03-21T14:37:00.384Z,16.48
2023-03-21T14:40:09.916Z,16.64
2023-03-21T14:43:13.086Z,16.52
2023-03-21T14:46:16.013Z,16.34
2023-03-21T14:49:22.443Z,16.21
2023-03-21T14:52:27.926Z,16.08
2023-03-21T14:55:31.939Z,15.91
2023-03-21T14:58:38.793Z,15.78
2023-03-21T15:01:41.990Z,15.67
2023-03-21T15:04:52.119Z,15.62
2023-03-21T15:08:07.525Z,15.56
2023-03-21T15:11:13.065Z,15.47
2023-03-21T15:14:17.089Z,15.39
2023-03-21T15:17:20.942Z,15.34
2023-03-21T15:20:27.357Z,15.19
2023-03-21T15:23:42.210Z,15.16
2023-03-21T15:26:47.706Z,15.20
2023-03-21T15:29:54.344Z,15.16
2023-03-21T15:32:58.340Z,15.14
2023-03-21T15:36:01.060Z,15.15
2023-03-21T15:39:09.648Z,15.22
2023-03-21T15:42:28.746Z,15.29
2023-03-21T15:45:31.691Z,15.34
2023-03-21T15:48:34.939Z,15.24
2023-03-21T15:51:38.205Z,15.17
2023-03-21T15:54:51.004Z,15.20
2023-03-21T15:58:00.966Z,15.17
2023-03-21T16:01:11.405Z,15.15
2023-03-21T16:04:14.974Z,14.96
2023-03-21T16:07:18.910Z,14.74
2023-03-21T16:10:28.067Z,14.51
2023-03-21T16:13:30.633Z,14.38
2023-03-21T16:16:33.648Z,14.20
2023-03-21T16:19:36.299Z,13.95
2023-03-21T16:22:39.301Z,13.94
2023-03-21T16:25:43.043Z,13.72
2023-03-21T16:28:47.009Z,13.66
2023-03-21T16:31:50.640Z,13.66
2023-03-21T16:34:53.823Z,13.70
2023-03-21T16:37:56.443Z,13.54
2023-03-21T16:41:01.041Z,13.46
2023-03-21T16:44:03.954Z,13.39
2023-03-21T16:47:20.807Z,13.29
2023-03-21T16:50:24.469Z,13.27
2023-03-21T16:53:28.061Z,13.21
2023-03-21T16:56:40.118Z,13.15
2023-03-21T16:59:43.237Z,13.14
2023-03-21T17:02:49.070Z,13.01
2023-03-21T17:05:51.920Z,13.12
2023-03-21T17:08:55.822Z,13.13
2023-03-21T17:11:59.300Z,13.04
2023-03-21T17:15:02.153Z,13.14
2023-03-21T17:18:05.620Z,13.14
2023-03-21T17:21:16.761Z,13.17
2023-03-21T17:24:19.840Z,13.10
2023-03-21T17:27:22.414Z,13.08
2023-03-21T17:30:34.653Z,13.11
2023-03-21T17:33:37.377Z,13.21
2023-03-21T17:36:42.356Z,13.40
2023-03-21T17:39:45.424Z,13.58
2023-03-21T17:42:49.468Z,13.67
2023-03-21T17:45:52.256Z,13.74
2023-03-21T17:48:55.433Z,13.66
2023-03-21T17:51:58.200Z,13.59
2023-03-21T17:55:01.218Z,13.59
2023-03-21T17:58:05.633Z,13.59
2023-03-21T18:01:08.847Z,13.54
2023-03-21T18:04:11.832Z,13.59
2023-03-21T18:07:22.307Z,13.56
2023-03-21T18:10:38.646Z,13.53
2023-03-21T18:13:42.264Z,13.49
2023-03-21T18:16:45.560Z,13.38
2023-03-21T18:19:48.349Z,13.23
2023-03-21T18:22:54.931Z,13.15
2023-03-21T18:25:57.572Z,13.09
2023-03-21T18:32:23.250Z,13.03
2023-03-21T18:35:26.530Z,13.01
2023-03-21T18:38:29.401Z,13.05
2023-03-21T18:41:32.538Z,13.12
2023-03-21T18:44:38.974Z,13.02
2023-03-21T18:47:42.371Z,12.94
2023-03-21T18:50:45.482Z,12.86
2023-03-21T18:53:49.112Z,12.73
2023-03-21T19:00:17.556Z,12.62
2023-03-21T19:03:34.313Z,12.54
2023-03-21T19:06:40.289Z,12.44
2023-03-21T19:10:05.386Z,12.39
2023-03-21T19:13:07.949Z,12.37
2023-03-21T19:16:11.684Z,12.38
2023-03-21T19:19:18.773Z,12.38
2023-03-21T19:22:21.336Z,12.35
2023-03-21T19:25:24.818Z,12.38
2023-03-21T19:28:28.153Z,12.37
2023-03-21T19:31:31.496Z,12.35
2023-03-21T19:34:34.476Z,12.22
2023-03-21T19:37:37.678Z,12.25
2023-03-21T19:40:42.094Z,12.22
2023-03-21T19:43:54.248Z,12.17
2023-03-21T19:46:57.470Z,12.15
2023-03-21T19:50:47.777Z,12.15
2023-03-21T19:53:23.489Z,12.22
2023-03-21T19:56:27.958Z,12.15
2023-03-21T19:59:32.138Z,12.14
2023-03-21T20:02:36.984Z,12.08
2023-03-21T20:05:40.488Z,12.08
2023-03-21T20:09:27.646Z,12.04
2023-03-21T20:12:07.563Z,11.99
2023-03-21T20:15:17.593Z,11.99
2023-03-21T20:18:24.074Z,12.02
2023-03-21T20:21:33.309Z,12.02
2023-03-21T20:24:44.389Z,12.00
2023-03-21T20:27:47.450Z,11.95
2023-03-21T20:30:53.332Z,11.88
2023-03-21T20:33:56.331Z,11.78
2023-03-21T20:36:59.470Z,11.72
2023-03-21T20:40:05.416Z,11.59
2023-03-21T20:43:52.226Z,11.57
2023-03-21T20:46:32.383Z,11.52
2023-03-21T20:49:36.004Z,11.49
2023-03-21T20:56:06.877Z,11.44
2023-03-21T20:59:20.969Z,11.41
2023-03-21T21:02:26.789Z,11.42
2023-03-21T21:05:34.363Z,11.34
2023-03-21T21:08:38.857Z,11.32
2023-03-21T21:12:06.485Z,11.29
2023-03-21T21:15:04.880Z,11.35
2023-03-21T21:18:08.387Z,11.40
2023-03-21T21:21:12.660Z,11.38
2023-03-21T21:24:15.251Z,11.37
2023-03-21T21:27:18.231Z,11.26
2023-03-21T21:30:21.063Z,11.27
2023-03-21T21:33:29.193Z,11.26
2023-03-21T21:36:31.744Z,11.32
2023-03-21T21:39:38.749Z,11.30
2023-03-21T21:42:45.112Z,11.30
2023-03-21T21:45:48.921Z,11.32
2023-03-21T21:48:51.701Z,11.33
2023-03-21T21:51:56.265Z,11.25
2023-03-21T21:54:58.815Z,11.23
2023-03-21T21:58:02.791Z,11.17
2023-03-21T22:01:07.223Z,11.17
2023-03-21T22:04:11.394Z,11.15
2023-03-21T22:07:14.395Z,11.18
2023-03-21T22:10:18.209Z,11.16
2023-03-21T22:13:21.244Z,11.11
2023-03-21T22:16:24.148Z,11.08
2023-03-21T22:19:27.717Z,11.13
2023-03-21T22:22:30.749Z,11.16
2023-03-21T22:25:33.258Z,11.09
2023-03-21T22:28:40.087Z,11.14
2023-03-21T22:31:44.194Z,11.33
2023-03-21T22:34:47.032Z,11.30
2023-03-21T22:37:51.268Z,11.22
2023-03-21T22:40:58.495Z,11.09
2023-03-21T22:44:01.541Z,10.90
2023-03-21T22:47:06.238Z,10.83
2023-03-21T22:50:09.438Z,10.85
2023-03-21T22:53:13.279Z,10.86
2023-03-21T22:56:15.748Z,10.85
2023-03-21T22:59:18.827Z,10.81
2023-03-21T23:02:21.574Z,10.84
2023-03-21T23:05:24.363Z,10.84
2023-03-21T23:08:27.536Z,10.83
2023-03-21T23:11:30.447Z,10.88
2023-03-21T23:14:33.034Z,10.88
2023-03-21T23:17:36.194Z,10.92
2023-03-21T23:20:39.094Z,11.00
2023-03-21T23:23:50.088Z,11.08
2023-03-21T23:26:53.016Z,11.16
2023-03-21T23:29:56.842Z,11.08
2023-03-21T23:32:59.342Z,11.01
2023-03-21T23:36:19.037Z,10.93
2023-03-21T23:39:21.736Z,10.93
2023-03-21T23:42:28.013Z,10.89
2023-03-21T23:45:30.790Z,10.86
2023-03-21T23:48:33.807Z,10.79
2023-03-21T23:51:36.478Z,10.80
2023-03-21T23:54:39.313Z,10.80
2023-03-21T23:57:43.902Z,10.76
